This is the latest recevied weather packets stored in our database for station/object KA3ZXO. If no packets are shown the sender has not sent any weather packets the latest 10 day(s).
| Time | Temp. | Humidity | Pressure | Rain* | Wind** | Luminosity | Snow |
|---|---|---|---|---|---|---|---|
| 1777770555 | 10° C | 81% | 1012.6 hPa | 0 mm | - | 0 W/m² | - |
| 1777769955 | 10° C | 80% | 1012.5 hPa | 0 mm | - | 0 W/m² | - |
| 1777769354 | 10° C | 80% | 1012.3 hPa | 0 mm | - | 0 W/m² | - |
| 1777768749 | 10.56° C | 78% | 1012.2 hPa | 0 mm | - | 0 W/m² | - |
| 1777768149 | 10.56° C | 77% | 1011.9 hPa | 0 mm | - | 0 W/m² | - |
| 1777767548 | 11.11° C | 74% | 1011.8 hPa | 0 mm | - | 0 W/m² | - |
| 1777766942 | 11.67° C | 70% | 1011.7 hPa | 0 mm | - | 0 W/m² | - |
| 1777766342 | 11.67° C | 71% | 1011.8 hPa | 0 mm | - | 1 W/m² | - |
| 1777765742 | 11.67° C | 69% | 1011.8 hPa | 0 mm | - | 2 W/m² | - |
| 1777765141 | 12.22° C | 66% | 1011.6 hPa | 0 mm | - | 4 W/m² | - |
| 1777764540 | 12.78° C | 59% | 1011.6 hPa | 0 mm | - | 10 W/m² | - |
| 1777763939 | 12.78° C | 58% | 1011.3 hPa | 0 mm | - | 11 W/m² | - |
| 1777763335 | 13.33° C | 55% | 1011.3 hPa | 0 mm | - | 10 W/m² | - |
| 1777762735 | 13.33° C | 54% | 1011.5 hPa | 0 mm | - | 13 W/m² | - |
| 1777762135 | 13.33° C | 52% | 1011.4 hPa | 0 mm | - | 22 W/m² | - |
| 1777761534 | 13.89° C | 52% | 1011.5 hPa | 0 mm | - | 16 W/m² | - |
| 1777760930 | 13.89° C | 52% | 1011.5 hPa | 0 mm | - | 33 W/m² | - |
| 1777760328 | 15° C | 51% | 1011.6 hPa | 0 mm | - | 53 W/m² | - |
| 1777759728 | 15° C | 49% | 1011.5 hPa | 0 mm | - | 43 W/m² | - |
| 1777759126 | 15° C | 48% | 1011.7 hPa | 0 mm | - | 74 W/m² | - |
| 1777758526 | 15.56° C | 48% | 1011.6 hPa | 0 mm | - | 162 W/m² | - |
| 1777757925 | 15.56° C | 46% | 1011.7 hPa | 0 mm | - | 63 W/m² | - |
| 1777757321 | 15° C | 49% | 1011.4 hPa | 0 mm | - | 102 W/m² | - |
| 1777756722 | 13.89° C | 54% | 1011.5 hPa | 0 mm | - | 111 W/m² | - |
| 1777756120 | 13.89° C | 52% | 1011.5 hPa | 0 mm | - | 60 W/m² | - |
* Rain latest hour (hover to see other rain measurements)
** Current wind speed in m/s (hover to see current wind gust speed)